sensor_id;sensor_type;location;lat;lon;timestamp;temperature;humidity
11221;DHT22;8517;53.546;10.104;2023-02-13T00:01:22;10.70;99.90
11221;DHT22;8517;53.546;10.104;2023-02-13T00:03:49;10.70;99.90
11221;DHT22;8517;53.546;10.104;2023-02-13T00:06:15;10.70;99.90
11221;DHT22;8517;53.546;10.104;2023-02-13T00:08:42;10.70;99.90
11221;DHT22;8517;53.546;10.104;2023-02-13T00:11:19;10.70;99.90
11221;DHT22;8517;53.546;10.104;2023-02-13T00:13:46;10.70;99.90
11221;DHT22;8517;53.546;10.104;2023-02-13T00:16:13;10.70;99.90
11221;DHT22;8517;53.546;10.104;2023-02-13T00:18:40;10.70;99.90
11221;DHT22;8517;53.546;10.104;2023-02-13T00:21:10;10.70;99.90
11221;DHT22;8517;53.546;10.104;2023-02-13T00:23:37;10.70;99.90
11221;DHT22;8517;53.546;10.104;2023-02-13T00:26:06;10.70;99.90
11221;DHT22;8517;53.546;10.104;2023-02-13T00:28:34;10.70;99.90
11221;DHT22;8517;53.546;10.104;2023-02-13T00:31:03;10.70;99.90
11221;DHT22;8517;53.546;10.104;2023-02-13T00:33:30;10.70;99.90
11221;DHT22;8517;53.546;10.104;2023-02-13T00:36:02;10.70;99.90
11221;DHT22;8517;53.546;10.104;2023-02-13T00:38:29;10.70;99.90
11221;DHT22;8517;53.546;10.104;2023-02-13T00:40:56;10.70;99.90
11221;DHT22;8517;53.546;10.104;2023-02-13T00:43:23;10.70;99.90
11221;DHT22;8517;53.546;10.104;2023-02-13T00:45:51;10.70;99.90
11221;DHT22;8517;53.546;10.104;2023-02-13T00:48:18;10.70;99.90
11221;DHT22;8517;53.546;10.104;2023-02-13T00:50:45;10.70;99.90
11221;DHT22;8517;53.546;10.104;2023-02-13T00:53:12;10.70;99.90
11221;DHT22;8517;53.546;10.104;2023-02-13T00:55:39;10.60;99.90
11221;DHT22;8517;53.546;10.104;2023-02-13T00:58:05;10.60;99.90
11221;DHT22;8517;53.546;10.104;2023-02-13T01:00:32;10.60;99.90
11221;DHT22;8517;53.546;10.104;2023-02-13T01:03:00;10.60;99.90
11221;DHT22;8517;53.546;10.104;2023-02-13T01:05:27;10.60;99.90
11221;DHT22;8517;53.546;10.104;2023-02-13T01:07:55;10.60;99.90
11221;DHT22;8517;53.546;10.104;2023-02-13T01:10:22;10.60;99.90
11221;DHT22;8517;53.546;10.104;2023-02-13T01:12:49;10.60;99.90
11221;DHT22;8517;53.546;10.104;2023-02-13T01:15:15;10.60;99.90
11221;DHT22;8517;53.546;10.104;2023-02-13T01:17:42;10.60;99.90
11221;DHT22;8517;53.546;10.104;2023-02-13T01:20:12;10.60;99.90
11221;DHT22;8517;53.546;10.104;2023-02-13T01:22:39;10.60;99.90
11221;DHT22;8517;53.546;10.104;2023-02-13T01:25:09;10.60;99.90
11221;DHT22;8517;53.546;10.104;2023-02-13T01:27:37;10.60;99.90
11221;DHT22;8517;53.546;10.104;2023-02-13T01:30:15;10.60;99.90
11221;DHT22;8517;53.546;10.104;2023-02-13T01:32:44;10.60;99.90
11221;DHT22;8517;53.546;10.104;2023-02-13T01:35:14;10.60;99.90
11221;DHT22;8517;53.546;10.104;2023-02-13T01:37:41;10.60;99.90
11221;DHT22;8517;53.546;10.104;2023-02-13T01:40:11;10.60;99.90
11221;DHT22;8517;53.546;10.104;2023-02-13T01:42:38;10.60;99.90
11221;DHT22;8517;53.546;10.104;2023-02-13T01:45:19;10.60;99.90
11221;DHT22;8517;53.546;10.104;2023-02-13T01:47:49;10.60;99.90
11221;DHT22;8517;53.546;10.104;2023-02-13T01:50:23;10.60;99.90
11221;DHT22;8517;53.546;10.104;2023-02-13T01:52:54;10.50;99.90
11221;DHT22;8517;53.546;10.104;2023-02-13T01:55:22;10.60;99.90
11221;DHT22;8517;53.546;10.104;2023-02-13T01:57:53;10.50;99.90
11221;DHT22;8517;53.546;10.104;2023-02-13T02:00:23;10.60;99.90
11221;DHT22;8517;53.546;10.104;2023-02-13T02:02:52;10.50;99.90
11221;DHT22;8517;53.546;10.104;2023-02-13T02:05:29;10.60;99.90
11221;DHT22;8517;53.546;10.104;2023-02-13T02:07:59;10.50;99.90
11221;DHT22;8517;53.546;10.104;2023-02-13T02:10:28;10.50;99.90
11221;DHT22;8517;53.546;10.104;2023-02-13T02:13:02;10.50;99.90
11221;DHT22;8517;53.546;10.104;2023-02-13T02:15:30;10.50;99.90
11221;DHT22;8517;53.546;10.104;2023-02-13T02:17:57;10.60;99.90
11221;DHT22;8517;53.546;10.104;2023-02-13T02:20:40;10.50;99.90
11221;DHT22;8517;53.546;10.104;2023-02-13T02:23:41;10.50;99.90
11221;DHT22;8517;53.546;10.104;2023-02-13T02:29:39;10.50;99.90
11221;DHT22;8517;53.546;10.104;2023-02-13T02:32:29;10.50;99.90
11221;DHT22;8517;53.546;10.104;2023-02-13T02:35:08;10.40;99.90
11221;DHT22;8517;53.546;10.104;2023-02-13T02:37:50;10.40;99.90
11221;DHT22;8517;53.546;10.104;2023-02-13T02:40:24;10.40;99.90
11221;DHT22;8517;53.546;10.104;2023-02-13T02:43:03;10.40;99.90
11221;DHT22;8517;53.546;10.104;2023-02-13T02:45:38;10.40;99.90
11221;DHT22;8517;53.546;10.104;2023-02-13T02:48:17;10.40;99.90
11221;DHT22;8517;53.546;10.104;2023-02-13T02:51:09;10.40;99.90
11221;DHT22;8517;53.546;10.104;2023-02-13T02:53:43;10.40;99.90
11221;DHT22;8517;53.546;10.104;2023-02-13T02:56:19;10.40;99.90
11221;DHT22;8517;53.546;10.104;2023-02-13T02:58:52;10.30;99.90
11221;DHT22;8517;53.546;10.104;2023-02-13T03:01:38;10.30;99.90
11221;DHT22;8517;53.546;10.104;2023-02-13T03:04:29;10.30;99.90
11221;DHT22;8517;53.546;10.104;2023-02-13T03:07:15;10.30;99.90
11221;DHT22;8517;53.546;10.104;2023-02-13T03:09:46;10.30;99.90
11221;DHT22;8517;53.546;10.104;2023-02-13T03:12:35;10.20;99.90
11221;DHT22;8517;53.546;10.104;2023-02-13T03:15:23;10.30;99.90
11221;DHT22;8517;53.546;10.104;2023-02-13T03:17:51;10.20;99.90
11221;DHT22;8517;53.546;10.104;2023-02-13T03:20:43;10.20;99.90
11221;DHT22;8517;53.546;10.104;2023-02-13T03:23:37;10.20;99.90
11221;DHT22;8517;53.546;10.104;2023-02-13T03:26:25;10.20;99.90
11221;DHT22;8517;53.546;10.104;2023-02-13T03:29:06;10.20;99.90
11221;DHT22;8517;53.546;10.104;2023-02-13T03:31:58;10.20;99.90
11221;DHT22;8517;53.546;10.104;2023-02-13T03:34:34;10.20;99.90
11221;DHT22;8517;53.546;10.104;2023-02-13T03:37:18;10.20;99.90
11221;DHT22;8517;53.546;10.104;2023-02-13T03:40:08;10.20;99.90
11221;DHT22;8517;53.546;10.104;2023-02-13T03:42:41;10.20;99.90
11221;DHT22;8517;53.546;10.104;2023-02-13T03:45:13;10.20;99.90
11221;DHT22;8517;53.546;10.104;2023-02-13T03:48:00;10.20;99.90
11221;DHT22;8517;53.546;10.104;2023-02-13T03:50:48;10.20;99.90
11221;DHT22;8517;53.546;10.104;2023-02-13T03:53:15;10.20;99.90
11221;DHT22;8517;53.546;10.104;2023-02-13T03:55:45;10.10;99.90
11221;DHT22;8517;53.546;10.104;2023-02-13T03:58:35;10.10;99.90
11221;DHT22;8517;53.546;10.104;2023-02-13T04:01:22;10.10;99.90
11221;DHT22;8517;53.546;10.104;2023-02-13T04:03:55;10.10;99.90
11221;DHT22;8517;53.546;10.104;2023-02-13T04:06:26;10.10;99.90
11221;DHT22;8517;53.546;10.104;2023-02-13T04:08:56;10.10;99.90
11221;DHT22;8517;53.546;10.104;2023-02-13T04:11:29;10.10;99.90
11221;DHT22;8517;53.546;10.104;2023-02-13T04:13:58;10.10;99.90
11221;DHT22;8517;53.546;10.104;2023-02-13T04:16:28;10.10;99.90
11221;DHT22;8517;53.546;10.104;2023-02-13T04:18:56;10.10;99.90
11221;DHT22;8517;53.546;10.104;2023-02-13T04:21:23;10.10;99.90
11221;DHT22;8517;53.546;10.104;2023-02-13T04:23:50;10.10;99.90
11221;DHT22;8517;53.546;10.104;2023-02-13T04:26:21;10.10;99.90
11221;DHT22;8517;53.546;10.104;2023-02-13T04:28:48;10.10;99.90
11221;DHT22;8517;53.546;10.104;2023-02-13T04:31:15;10.10;99.90
11221;DHT22;8517;53.546;10.104;2023-02-13T04:33:42;10.10;99.90
11221;DHT22;8517;53.546;10.104;2023-02-13T04:36:09;10.10;99.90
11221;DHT22;8517;53.546;10.104;2023-02-13T04:38:35;10.10;99.90
11221;DHT22;8517;53.546;10.104;2023-02-13T04:41:02;10.10;99.90
11221;DHT22;8517;53.546;10.104;2023-02-13T04:43:30;10.10;99.90
11221;DHT22;8517;53.546;10.104;2023-02-13T04:45:57;10.10;99.90
11221;DHT22;8517;53.546;10.104;2023-02-13T04:48:24;10.10;99.90
11221;DHT22;8517;53.546;10.104;2023-02-13T04:50:51;10.10;99.90
11221;DHT22;8517;53.546;10.104;2023-02-13T04:53:17;10.10;99.90
11221;DHT22;8517;53.546;10.104;2023-02-13T04:55:44;10.10;99.90
11221;DHT22;8517;53.546;10.104;2023-02-13T04:58:11;10.10;99.90
11221;DHT22;8517;53.546;10.104;2023-02-13T05:00:39;10.10;99.90
11221;DHT22;8517;53.546;10.104;2023-02-13T05:03:07;10.10;99.90
11221;DHT22;8517;53.546;10.104;2023-02-13T05:05:34;10.10;99.90
11221;DHT22;8517;53.546;10.104;2023-02-13T05:08:01;10.10;99.90
11221;DHT22;8517;53.546;10.104;2023-02-13T05:10:29;10.00;99.90
11221;DHT22;8517;53.546;10.104;2023-02-13T05:12:56;10.00;99.90
11221;DHT22;8517;53.546;10.104;2023-02-13T05:15:22;10.00;99.90
11221;DHT22;8517;53.546;10.104;2023-02-13T05:17:53;10.00;99.90
11221;DHT22;8517;53.546;10.104;2023-02-13T05:20:20;10.10;99.90
11221;DHT22;8517;53.546;10.104;2023-02-13T05:22:49;10.10;99.90
11221;DHT22;8517;53.546;10.104;2023-02-13T05:25:34;10.00;99.90
11221;DHT22;8517;53.546;10.104;2023-02-13T05:28:01;10.10;99.90
11221;DHT22;8517;53.546;10.104;2023-02-13T05:30:28;10.10;99.90
11221;DHT22;8517;53.546;10.104;2023-02-13T05:32:55;10.10;99.90
11221;DHT22;8517;53.546;10.104;2023-02-13T05:35:35;10.10;99.90
11221;DHT22;8517;53.546;10.104;2023-02-13T05:38:02;10.10;99.90
11221;DHT22;8517;53.546;10.104;2023-02-13T05:40:28;10.10;99.90
11221;DHT22;8517;53.546;10.104;2023-02-13T05:42:55;10.10;99.90
11221;DHT22;8517;53.546;10.104;2023-02-13T05:45:22;10.10;99.90
11221;DHT22;8517;53.546;10.104;2023-02-13T05:47:49;10.20;99.90
11221;DHT22;8517;53.546;10.104;2023-02-13T05:50:17;10.20;99.90
11221;DHT22;8517;53.546;10.104;2023-02-13T05:52:44;10.20;99.90
11221;DHT22;8517;53.546;10.104;2023-02-13T05:55:11;10.20;99.90
11221;DHT22;8517;53.546;10.104;2023-02-13T05:57:38;10.20;99.90
11221;DHT22;8517;53.546;10.104;2023-02-13T06:00:06;10.20;99.90
11221;DHT22;8517;53.546;10.104;2023-02-13T06:02:33;10.20;99.90
11221;DHT22;8517;53.546;10.104;2023-02-13T06:04:59;10.20;99.90
11221;DHT22;8517;53.546;10.104;2023-02-13T06:07:28;10.20;99.90
11221;DHT22;8517;53.546;10.104;2023-02-13T06:09:56;10.20;99.90
11221;DHT22;8517;53.546;10.104;2023-02-13T06:12:24;10.20;99.90
11221;DHT22;8517;53.546;10.104;2023-02-13T06:14:51;10.20;99.90
11221;DHT22;8517;53.546;10.104;2023-02-13T06:17:17;10.20;99.90
11221;DHT22;8517;53.546;10.104;2023-02-13T06:19:44;10.20;99.90
11221;DHT22;8517;53.546;10.104;2023-02-13T06:22:11;10.20;99.90
11221;DHT22;8517;53.546;10.104;2023-02-13T06:24:40;10.20;99.90
11221;DHT22;8517;53.546;10.104;2023-02-13T06:27:06;10.20;99.90
11221;DHT22;8517;53.546;10.104;2023-02-13T06:29:33;10.20;99.90
11221;DHT22;8517;53.546;10.104;2023-02-13T06:32:00;10.20;99.90
11221;DHT22;8517;53.546;10.104;2023-02-13T06:34:27;10.20;99.90
11221;DHT22;8517;53.546;10.104;2023-02-13T06:36:54;10.20;99.90
11221;DHT22;8517;53.546;10.104;2023-02-13T06:39:21;10.20;99.90
11221;DHT22;8517;53.546;10.104;2023-02-13T06:41:50;10.20;99.90
11221;DHT22;8517;53.546;10.104;2023-02-13T06:44:17;10.30;99.90
11221;DHT22;8517;53.546;10.104;2023-02-13T06:46:44;10.20;99.90
11221;DHT22;8517;53.546;10.104;2023-02-13T06:49:11;10.20;99.90
11221;DHT22;8517;53.546;10.104;2023-02-13T06:51:38;10.30;99.90
11221;DHT22;8517;53.546;10.104;2023-02-13T06:54:05;10.20;99.90
11221;DHT22;8517;53.546;10.104;2023-02-13T06:56:32;10.30;99.90
11221;DHT22;8517;53.546;10.104;2023-02-13T06:59:00;10.30;99.90
11221;DHT22;8517;53.546;10.104;2023-02-13T07:01:30;10.30;99.90
11221;DHT22;8517;53.546;10.104;2023-02-13T07:04:02;10.30;99.90
11221;DHT22;8517;53.546;10.104;2023-02-13T07:06:29;10.30;99.90
11221;DHT22;8517;53.546;10.104;2023-02-13T07:08:56;10.30;99.90
11221;DHT22;8517;53.546;10.104;2023-02-13T07:11:24;10.30;99.90
11221;DHT22;8517;53.546;10.104;2023-02-13T07:13:56;10.30;99.90
11221;DHT22;8517;53.546;10.104;2023-02-13T07:16:24;10.30;99.90
11221;DHT22;8517;53.546;10.104;2023-02-13T07:18:51;10.40;99.90
11221;DHT22;8517;53.546;10.104;2023-02-13T07:21:17;10.30;99.90
11221;DHT22;8517;53.546;10.104;2023-02-13T07:23:44;10.30;99.90
11221;DHT22;8517;53.546;10.104;2023-02-13T07:26:11;10.30;99.90
11221;DHT22;8517;53.546;10.104;2023-02-13T07:28:38;10.30;99.90
11221;DHT22;8517;53.546;10.104;2023-02-13T07:31:05;10.30;99.90
11221;DHT22;8517;53.546;10.104;2023-02-13T07:33:33;10.30;99.90
11221;DHT22;8517;53.546;10.104;2023-02-13T07:36:00;10.30;99.90
11221;DHT22;8517;53.546;10.104;2023-02-13T07:38:28;10.30;99.90
11221;DHT22;8517;53.546;10.104;2023-02-13T07:40:57;10.30;99.90
11221;DHT22;8517;53.546;10.104;2023-02-13T07:43:24;10.20;99.90
11221;DHT22;8517;53.546;10.104;2023-02-13T07:45:51;10.20;99.90
11221;DHT22;8517;53.546;10.104;2023-02-13T07:48:20;10.20;99.90
11221;DHT22;8517;53.546;10.104;2023-02-13T07:50:48;10.20;99.90
11221;DHT22;8517;53.546;10.104;2023-02-13T07:53:15;10.20;99.90
11221;DHT22;8517;53.546;10.104;2023-02-13T07:55:42;10.10;99.90
11221;DHT22;8517;53.546;10.104;2023-02-13T07:58:11;10.10;99.90
11221;DHT22;8517;53.546;10.104;2023-02-13T08:00:37;10.10;99.90
11221;DHT22;8517;53.546;10.104;2023-02-13T08:03:04;10.10;99.90
11221;DHT22;8517;53.546;10.104;2023-02-13T08:05:31;10.10;99.90
11221;DHT22;8517;53.546;10.104;2023-02-13T08:08:00;10.10;99.90
11221;DHT22;8517;53.546;10.104;2023-02-13T08:10:27;10.10;99.90
11221;DHT22;8517;53.546;10.104;2023-02-13T08:13:12;10.10;99.90
11221;DHT22;8517;53.546;10.104;2023-02-13T08:15:40;10.20;99.90
11221;DHT22;8517;53.546;10.104;2023-02-13T08:18:09;10.20;99.90
11221;DHT22;8517;53.546;10.104;2023-02-13T08:20:35;10.20;99.90
11221;DHT22;8517;53.546;10.104;2023-02-13T08:23:05;10.20;99.90
11221;DHT22;8517;53.546;10.104;2023-02-13T08:25:36;10.20;99.90
11221;DHT22;8517;53.546;10.104;2023-02-13T08:28:03;10.20;99.90
11221;DHT22;8517;53.546;10.104;2023-02-13T08:30:30;10.20;99.90
11221;DHT22;8517;53.546;10.104;2023-02-13T08:32:57;10.20;99.90
11221;DHT22;8517;53.546;10.104;2023-02-13T08:35:24;10.30;99.90
11221;DHT22;8517;53.546;10.104;2023-02-13T08:37:54;10.20;99.90
11221;DHT22;8517;53.546;10.104;2023-02-13T08:40:22;10.30;99.90
11221;DHT22;8517;53.546;10.104;2023-02-13T08:42:49;10.20;99.90
11221;DHT22;8517;53.546;10.104;2023-02-13T08:45:16;10.20;99.90
11221;DHT22;8517;53.546;10.104;2023-02-13T08:47:43;10.20;99.90
11221;DHT22;8517;53.546;10.104;2023-02-13T08:50:10;10.20;99.90
11221;DHT22;8517;53.546;10.104;2023-02-13T08:52:37;10.30;99.90
11221;DHT22;8517;53.546;10.104;2023-02-13T08:55:04;10.30;99.90
11221;DHT22;8517;53.546;10.104;2023-02-13T08:57:32;10.30;99.90
11221;DHT22;8517;53.546;10.104;2023-02-13T08:59:59;10.30;99.90
11221;DHT22;8517;53.546;10.104;2023-02-13T09:02:26;10.20;99.90
11221;DHT22;8517;53.546;10.104;2023-02-13T09:04:52;10.20;99.90
11221;DHT22;8517;53.546;10.104;2023-02-13T09:07:19;10.20;99.90
11221;DHT22;8517;53.546;10.104;2023-02-13T09:09:46;10.20;99.90
11221;DHT22;8517;53.546;10.104;2023-02-13T09:12:13;10.20;99.90
11221;DHT22;8517;53.546;10.104;2023-02-13T09:14:41;10.20;99.90
11221;DHT22;8517;53.546;10.104;2023-02-13T09:17:08;10.20;99.90
11221;DHT22;8517;53.546;10.104;2023-02-13T09:19:35;10.30;99.90
11221;DHT22;8517;53.546;10.104;2023-02-13T09:22:02;10.30;99.90
11221;DHT22;8517;53.546;10.104;2023-02-13T09:24:29;10.40;99.90
11221;DHT22;8517;53.546;10.104;2023-02-13T09:26:55;10.40;99.90
11221;DHT22;8517;53.546;10.104;2023-02-13T09:29:22;10.50;99.90
11221;DHT22;8517;53.546;10.104;2023-02-13T09:31:51;10.50;99.90
11221;DHT22;8517;53.546;10.104;2023-02-13T09:34:18;10.60;99.90
11221;DHT22;8517;53.546;10.104;2023-02-13T09:36:44;10.60;99.90
11221;DHT22;8517;53.546;10.104;2023-02-13T09:39:11;10.70;99.90
11221;DHT22;8517;53.546;10.104;2023-02-13T09:41:40;10.70;99.90
11221;DHT22;8517;53.546;10.104;2023-02-13T09:44:12;10.70;99.90
11221;DHT22;8517;53.546;10.104;2023-02-13T09:47:01;10.80;99.90
11221;DHT22;8517;53.546;10.104;2023-02-13T09:49:32;10.80;99.90
11221;DHT22;8517;53.546;10.104;2023-02-13T09:52:01;10.80;99.90
11221;DHT22;8517;53.546;10.104;2023-02-13T09:54:27;10.80;99.90
11221;DHT22;8517;53.546;10.104;2023-02-13T09:56:59;10.80;99.90
11221;DHT22;8517;53.546;10.104;2023-02-13T09:59:48;10.80;99.90
11221;DHT22;8517;53.546;10.104;2023-02-13T10:02:36;10.80;99.90
11221;DHT22;8517;53.546;10.104;2023-02-13T10:05:15;10.90;99.90
11221;DHT22;8517;53.546;10.104;2023-02-13T10:07:48;11.00;99.90
11221;DHT22;8517;53.546;10.104;2023-02-13T10:10:24;11.00;99.90
11221;DHT22;8517;53.546;10.104;2023-02-13T10:13:06;11.00;99.90
11221;DHT22;8517;53.546;10.104;2023-02-13T10:15:43;11.10;99.90
11221;DHT22;8517;53.546;10.104;2023-02-13T10:18:16;11.10;99.90
11221;DHT22;8517;53.546;10.104;2023-02-13T10:20:46;11.10;99.90
11221;DHT22;8517;53.546;10.104;2023-02-13T10:23:20;11.10;99.90
11221;DHT22;8517;53.546;10.104;2023-02-13T10:25:51;11.10;99.90
11221;DHT22;8517;53.546;10.104;2023-02-13T10:28:31;11.10;99.90
11221;DHT22;8517;53.546;10.104;2023-02-13T10:31:04;11.10;99.90
11221;DHT22;8517;53.546;10.104;2023-02-13T10:33:40;11.20;99.90
11221;DHT22;8517;53.546;10.104;2023-02-13T10:36:16;11.20;99.90
11221;DHT22;8517;53.546;10.104;2023-02-13T10:38:55;11.20;99.90
11221;DHT22;8517;53.546;10.104;2023-02-13T10:41:33;11.20;99.90
11221;DHT22;8517;53.546;10.104;2023-02-13T10:44:15;11.30;99.90
11221;DHT22;8517;53.546;10.104;2023-02-13T10:46:53;11.20;99.90
11221;DHT22;8517;53.546;10.104;2023-02-13T10:49:34;11.20;99.90
11221;DHT22;8517;53.546;10.104;2023-02-13T10:52:14;11.20;99.90
11221;DHT22;8517;53.546;10.104;2023-02-13T10:55:02;11.10;99.90
11221;DHT22;8517;53.546;10.104;2023-02-13T10:57:39;11.10;99.90
11221;DHT22;8517;53.546;10.104;2023-02-13T11:00:17;11.10;99.90
11221;DHT22;8517;53.546;10.104;2023-02-13T11:02:46;11.10;99.90
11221;DHT22;8517;53.546;10.104;2023-02-13T11:05:18;11.10;99.90
11221;DHT22;8517;53.546;10.104;2023-02-13T11:07:46;11.10;99.90
11221;DHT22;8517;53.546;10.104;2023-02-13T11:10:15;11.10;99.90
11221;DHT22;8517;53.546;10.104;2023-02-13T11:12:42;11.10;99.90
11221;DHT22;8517;53.546;10.104;2023-02-13T11:15:22;11.20;99.90
11221;DHT22;8517;53.546;10.104;2023-02-13T11:17:51;11.20;99.90
11221;DHT22;8517;53.546;10.104;2023-02-13T11:20:31;11.20;99.90
11221;DHT22;8517;53.546;10.104;2023-02-13T11:23:17;11.20;99.90
11221;DHT22;8517;53.546;10.104;2023-02-13T11:25:55;11.20;99.90
11221;DHT22;8517;53.546;10.104;2023-02-13T11:28:44;11.30;99.90
11221;DHT22;8517;53.546;10.104;2023-02-13T11:31:21;11.30;99.90
11221;DHT22;8517;53.546;10.104;2023-02-13T11:33:49;11.30;99.90
11221;DHT22;8517;53.546;10.104;2023-02-13T11:36:25;11.40;99.90
11221;DHT22;8517;53.546;10.104;2023-02-13T11:39:01;11.40;99.90
11221;DHT22;8517;53.546;10.104;2023-02-13T11:41:30;11.40;99.90
11221;DHT22;8517;53.546;10.104;2023-02-13T11:43:59;11.40;99.90
11221;DHT22;8517;53.546;10.104;2023-02-13T11:46:28;11.50;99.90
11221;DHT22;8517;53.546;10.104;2023-02-13T11:49:05;11.40;99.90
11221;DHT22;8517;53.546;10.104;2023-02-13T11:51:42;11.40;99.90
11221;DHT22;8517;53.546;10.104;2023-02-13T11:54:27;11.40;99.90
11221;DHT22;8517;53.546;10.104;2023-02-13T11:56:56;11.40;99.90
11221;DHT22;8517;53.546;10.104;2023-02-13T11:59:24;11.40;99.90
11221;DHT22;8517;53.546;10.104;2023-02-13T12:02:03;11.40;99.90
11221;DHT22;8517;53.546;10.104;2023-02-13T12:04:30;11.40;99.90
11221;DHT22;8517;53.546;10.104;2023-02-13T12:07:00;11.40;99.90
11221;DHT22;8517;53.546;10.104;2023-02-13T12:09:28;11.30;99.90
11221;DHT22;8517;53.546;10.104;2023-02-13T12:11:57;11.30;99.90
11221;DHT22;8517;53.546;10.104;2023-02-13T12:14:30;11.30;99.90
11221;DHT22;8517;53.546;10.104;2023-02-13T12:17:02;11.30;99.90
11221;DHT22;8517;53.546;10.104;2023-02-13T12:19:37;11.40;99.90
11221;DHT22;8517;53.546;10.104;2023-02-13T12:22:25;11.40;99.90
11221;DHT22;8517;53.546;10.104;2023-02-13T12:25:22;11.40;99.90
11221;DHT22;8517;53.546;10.104;2023-02-13T12:28:01;11.40;99.90
11221;DHT22;8517;53.546;10.104;2023-02-13T12:36:49;11.50;99.90
11221;DHT22;8517;53.546;10.104;2023-02-13T12:39:29;11.50;99.90
11221;DHT22;8517;53.546;10.104;2023-02-13T12:42:11;11.50;99.90
11221;DHT22;8517;53.546;10.104;2023-02-13T12:47:50;11.60;99.90
11221;DHT22;8517;53.546;10.104;2023-02-13T12:50:34;11.60;99.90
11221;DHT22;8517;53.546;10.104;2023-02-13T12:56:27;11.50;99.90
11221;DHT22;8517;53.546;10.104;2023-02-13T12:59:04;11.50;99.90
11221;DHT22;8517;53.546;10.104;2023-02-13T13:01:46;11.50;99.90
11221;DHT22;8517;53.546;10.104;2023-02-13T13:04:21;11.40;99.90
11221;DHT22;8517;53.546;10.104;2023-02-13T13:07:26;11.40;99.90
11221;DHT22;8517;53.546;10.104;2023-02-13T13:10:20;11.40;99.90
11221;DHT22;8517;53.546;10.104;2023-02-13T13:12:59;11.40;99.90
11221;DHT22;8517;53.546;10.104;2023-02-13T13:15:33;11.30;99.90
11221;DHT22;8517;53.546;10.104;2023-02-13T13:18:22;11.30;99.90
11221;DHT22;8517;53.546;10.104;2023-02-13T13:20:58;11.30;99.90
11221;DHT22;8517;53.546;10.104;2023-02-13T13:23:31;11.30;99.90
11221;DHT22;8517;53.546;10.104;2023-02-13T13:26:06;11.30;99.90
11221;DHT22;8517;53.546;10.104;2023-02-13T13:28:46;11.30;99.90
11221;DHT22;8517;53.546;10.104;2023-02-13T13:31:16;11.30;99.90
11221;DHT22;8517;53.546;10.104;2023-02-13T13:33:45;11.30;99.90
11221;DHT22;8517;53.546;10.104;2023-02-13T13:36:20;11.30;99.90
11221;DHT22;8517;53.546;10.104;2023-02-13T13:38:55;11.30;99.90
11221;DHT22;8517;53.546;10.104;2023-02-13T13:41:31;11.30;99.90
11221;DHT22;8517;53.546;10.104;2023-02-13T13:44:25;11.30;99.90
11221;DHT22;8517;53.546;10.104;2023-02-13T13:47:08;11.30;99.90
11221;DHT22;8517;53.546;10.104;2023-02-13T13:49:42;11.30;99.90
11221;DHT22;8517;53.546;10.104;2023-02-13T13:52:21;11.30;99.90
11221;DHT22;8517;53.546;10.104;2023-02-13T13:54:48;11.30;99.90
11221;DHT22;8517;53.546;10.104;2023-02-13T13:57:17;11.30;99.90
11221;DHT22;8517;53.546;10.104;2023-02-13T14:02:46;11.20;99.90
11221;DHT22;8517;53.546;10.104;2023-02-13T14:05:23;11.20;99.90
11221;DHT22;8517;53.546;10.104;2023-02-13T14:07:52;11.20;99.90
11221;DHT22;8517;53.546;10.104;2023-02-13T14:13:36;11.20;99.90
11221;DHT22;8517;53.546;10.104;2023-02-13T14:16:08;11.10;99.90
11221;DHT22;8517;53.546;10.104;2023-02-13T14:18:35;11.10;99.90
11221;DHT22;8517;53.546;10.104;2023-02-13T14:21:04;11.10;99.90
11221;DHT22;8517;53.546;10.104;2023-02-13T14:23:46;11.10;99.90
11221;DHT22;8517;53.546;10.104;2023-02-13T14:26:29;11.10;99.90
11221;DHT22;8517;53.546;10.104;2023-02-13T14:29:24;11.10;99.90
11221;DHT22;8517;53.546;10.104;2023-02-13T14:34:51;11.00;99.90
11221;DHT22;8517;53.546;10.104;2023-02-13T14:37:23;11.10;99.90
11221;DHT22;8517;53.546;10.104;2023-02-13T14:43:24;11.10;99.90
11221;DHT22;8517;53.546;10.104;2023-02-13T14:45:55;11.10;99.90
11221;DHT22;8517;53.546;10.104;2023-02-13T14:48:39;11.10;99.90
11221;DHT22;8517;53.546;10.104;2023-02-13T14:51:16;11.10;99.90
11221;DHT22;8517;53.546;10.104;2023-02-13T14:53:57;11.20;99.90
11221;DHT22;8517;53.546;10.104;2023-02-13T14:56:26;11.20;99.90
11221;DHT22;8517;53.546;10.104;2023-02-13T14:59:00;11.20;99.90
11221;DHT22;8517;53.546;10.104;2023-02-13T15:01:29;11.20;99.90
11221;DHT22;8517;53.546;10.104;2023-02-13T15:04:04;11.20;99.90
11221;DHT22;8517;53.546;10.104;2023-02-13T15:06:35;11.20;99.90
11221;DHT22;8517;53.546;10.104;2023-02-13T15:09:14;11.20;99.90
11221;DHT22;8517;53.546;10.104;2023-02-13T15:11:46;11.30;99.90
11221;DHT22;8517;53.546;10.104;2023-02-13T15:14:41;11.20;99.90
11221;DHT22;8517;53.546;10.104;2023-02-13T15:17:14;11.20;99.90
11221;DHT22;8517;53.546;10.104;2023-02-13T15:19:46;11.20;99.90
11221;DHT22;8517;53.546;10.104;2023-02-13T15:22:19;11.20;99.90
11221;DHT22;8517;53.546;10.104;2023-02-13T15:24:47;11.20;99.90
11221;DHT22;8517;53.546;10.104;2023-02-13T15:27:18;11.20;99.90
11221;DHT22;8517;53.546;10.104;2023-02-13T15:30:03;11.20;99.90
11221;DHT22;8517;53.546;10.104;2023-02-13T15:32:32;11.20;99.90
11221;DHT22;8517;53.546;10.104;2023-02-13T15:35:16;11.20;99.90
11221;DHT22;8517;53.546;10.104;2023-02-13T15:37:43;11.10;99.90
11221;DHT22;8517;53.546;10.104;2023-02-13T15:44:02;11.10;99.90
11221;DHT22;8517;53.546;10.104;2023-02-13T15:46:31;11.10;99.90
11221;DHT22;8517;53.546;10.104;2023-02-13T15:49:03;11.10;99.90
11221;DHT22;8517;53.546;10.104;2023-02-13T15:51:32;11.00;99.90
11221;DHT22;8517;53.546;10.104;2023-02-13T15:54:01;11.00;99.90
11221;DHT22;8517;53.546;10.104;2023-02-13T15:56:29;11.00;99.90
11221;DHT22;8517;53.546;10.104;2023-02-13T15:58:57;11.00;99.90
11221;DHT22;8517;53.546;10.104;2023-02-13T16:01:25;10.90;99.90
11221;DHT22;8517;53.546;10.104;2023-02-13T16:03:59;10.90;99.90
11221;DHT22;8517;53.546;10.104;2023-02-13T16:06:28;10.90;99.90
11221;DHT22;8517;53.546;10.104;2023-02-13T16:08:57;10.90;99.90
11221;DHT22;8517;53.546;10.104;2023-02-13T16:11:29;10.90;99.90
11221;DHT22;8517;53.546;10.104;2023-02-13T16:14:05;10.90;99.90
11221;DHT22;8517;53.546;10.104;2023-02-13T16:16:35;10.90;99.90
11221;DHT22;8517;53.546;10.104;2023-02-13T16:19:24;10.90;99.90
11221;DHT22;8517;53.546;10.104;2023-02-13T16:21:54;10.80;99.90
11221;DHT22;8517;53.546;10.104;2023-02-13T16:24:27;10.90;99.90
11221;DHT22;8517;53.546;10.104;2023-02-13T16:26:54;10.80;99.90
11221;DHT22;8517;53.546;10.104;2023-02-13T16:29:24;10.80;99.90
11221;DHT22;8517;53.546;10.104;2023-02-13T16:32:01;10.80;99.90
11221;DHT22;8517;53.546;10.104;2023-02-13T16:34:30;10.70;99.90